Aviation Digital Data Service (ADDS)

Output produced by METARs form (1417 UTC 22 April 2021)
found at http://www.aviationweather.gov/metar/data/
 
LHBP 221415Z 31013G23KT 9999 -SHRA SCT045CB 15/06 Q1015 NOSIG
LHBP 221400Z 32016KT 9999 -TSRA SCT045CB 14/06 Q1015 TEMPO 5000 TSRA SCT035CB
LHBP 221330Z 27016KT 230V290 9999 -TSRA SCT045CB 17/05 Q1015 TEMPO 5000 TSRA SCT035CB
LHBP 221318Z 26013KT 9999 -TSRA SCT045CB 18/05 Q1015 TEMPO 5000 TSRA SCT035CB
LHBP 221300Z 24014KT 9999 FEW045CB 18/05 Q1015 TEMPO 5000 TSRA SCT035CB
LHBP 221230Z 26014KT 9999 FEW045CB 18/05 Q1015 TEMPO 5000 TSRA SCT035CB
LHBP 221200Z 28015KT 9999 FEW045CB SCT050 18/06 Q1015 RETS TEMPO 5000 TSRA SCT035CB
LHBP 221130Z 22007KT 190V250 9999 -TSRA SCT045CB 14/08 Q1015 TEMPO 5000 TSRA SCT035CB
TAF LHBP 221115Z 2212/2312 27012KT CAVOK 
     TEMPO 2212/2216 32020G35KT 4000 SHRA TSRA SCT030CB BKN040 
     BECMG 2216/2218 30006KT 
     BECMG 2306/2309 33012G25KT SCT040
       
LHDC 221345Z AUTO 22020KT 9999 FEW098 SCT230 //////CB 18/05 Q1014 TEMPO 29028G42KT 5000 TSRA SHRA BKN045CB
LHDC 221315Z AUTO 23020KT 9999 FEW061 //////TCU 19/06 Q1014 NOSIG
LHDC 221245Z AUTO 22020KT 190V250 9999 //////TCU 19/05 Q1014 NOSIG
LHDC 221215Z AUTO 22019KT 180V250 9999 FEW059 SCT125 //////TCU 19/07 Q1015 NOSIG
LHDC 221145Z AUTO 22019KT CAVOK 18/06 Q1015 NOSIG
TAF LHDC 221115Z 2212/2221 23015G25KT 9999 SCT045TCU 
     TEMPO 2212/2219 VRB20G35KT 4000 TSRA SHRA BKN035CB 
     PROB30 
     TEMPO 2213/2218 VRB30G45KT 1500 +TSRAGR OVC025CB 
     BECMG 2217/2220 01010KT 
     TEMPO 2219/2221 8000 SHRA BKN015 BKN035CB
       
LHKE 221352Z 32012KT 280V340 9999 -TSRA SCT045CB BKN050TCU 13/09 Q1016 R12/29//95 TEMPO 9999 -SHRA RMK BLU
LHKE 221345Z 33016G27KT 9999 -TSRA SCT045CB BKN050TCU 12/08 Q1016 TEMPO 9999 -SHRA RMK BLU
LHKE 221330Z 33017G27KT 300V010 8000 -TSRA SCT040CB BKN045CB 15/06 Q1016 TEMPO VRB20G34KT 5000 TSRA RMK BLU
LHKE 221315Z 27017G27KT 240V300 9999 TS SCT040CB SCT045TCU 18/07 Q1015 R12/01//95 TEMPO VRB18G34KT 5000 SHRA TSRA RMK BLU
LHKE 221308Z 27010KT 240V300 9999 TS SCT040CB SCT045TCU SCT200 19/07 Q1015 R12/01//95 TEMPO VRB15G30KT 5000 SHRA TSRA RMK BLU
LHKE 221245Z 23012KT 200V270 9999 FEW045TCU SCT050 SCT200 19/07 Q1015 R12/01//95 TEMPO 5000 SHRA -TSRA SCT035CB RMK BLU
LHKE 221215Z 24012KT 200V280 9999 SCT048 19/07 Q1015 R12/01//95 NOSIG RMK BLU
LHKE 221145Z 24012KT 200V300 9999 SCT048 18/06 Q1015 R12/01//95 NOSIG RMK BLU
TAF LHKE 221115Z 2212/2221 26010KT 9999 FEW045 BKN180 
     BECMG 2212/2213 9999 SCT045TCU 
     TEMPO 2212/2218 VRB18G30KT 4000 SHRA TSRA SCT030CB BKN040 BKN083 
     PROB30 
     TEMPO 2213/2216 VRB25G35KT 2000 +TSRA TSRAGR BKN025CB 
     BECMG 2217/2219 27005KT CAVOK
       
LHPA 221345Z 31006KT 290V360 8000 -SHRA FEW040TCU BKN050 OVC083 10/08 Q1017 BECMG NSW RMK BLU
LHPA 221315Z 33012KT 9999 -SHRA FEW040TCU BKN050 OVC083 11/08 Q1018 NOSIG RMK BLU
LHPA 221313Z 33012KT 9999 -SHRA FEW040TCU BKN047 OVC083 11/08 Q1018 RMK BLU
LHPA 221253Z 34008KT 300V010 9999 FEW040TCU SCT050 BKN083 12/07 Q1018 RESHRA RMK BLU
LHPA 221245Z 35012KT 9999 -SHRA BKN027TCU BKN083 11/07 Q1017 TEMPO NSW RMK BLU
LHPA 221220Z 34021KT 9999 SHRA VCTS FEW027CB BKN040TCU OVC083 11/07 Q1018 RETSRA RMK BLU
LHPA 221215Z 34021KT 6000 -TSRA SCT027CB BKN040TCU OVC083 11/07 Q1018 NOSIG RMK WHT
LHPA 221145Z 29023G33KT 260V330 8000 TSRA SCT030CB SCT040TCU BKN083 11/06 Q1018 NOSIG RMK BLU
LHPA 221138Z 30014G29KT 260V340 9999 -TSRA SCT033CB SCT040TCU BKN083 14/05 Q1017 RMK BLU
LHPA 221131Z 33010KT 9999 -TSRA SCT033CB SCT040TCU BKN083 16/05 Q1016 RMK BLU
LHPA 221129Z 33010KT 290V350 9999 VCTS FEW033CB SCT040TCU BKN083 16/04 Q1016 RMK BLU
TAF LHPA 221115Z 2212/2312 33009KT 9999 SCT040TCU SCT083 
     TEMPO 2212/2218 34015G25KT 6000 SHRA TSRA FEW010 SCT030CB BKN040TCU 
     PROB40 
     TEMPO 2212/2217 VRB23G33KT 1500 +TSRA TSRAGR SCT010 BKN025CB 
     BECMG 2218/2221 32004KT CAVOK 
     BECMG 2306/2309 33011KT 
     TEMPO 2309/2312 33010G20KT 9999 SCT040
       
LHPP 221345Z 25010KT 9999 FEW056 FEW056TCU 19/03 Q1015
LHPP 221315Z 28010KT 9999 FEW056 FEW056TCU 19/03 Q1016
LHPP 221245Z 27011KT 9999 FEW056 FEW056TCU 18/03 Q1016
LHPP 221215Z 26010G20KT CAVOK 18/04 Q1017
LHPP 221145Z 28011KT CAVOK 17/04 Q1017
TAF LHPP 221115Z 2212/2221 26012G22KT CAVOK 
     BECMG 2212/2215 SCT045TCU 
     PROB40 
     TEMPO 2213/2215 6000 SHRA SCT040CB 
     BECMG 2215/2218 36014G24KT 
     TEMPO 2215/2219 VRB20G34KT 4000 TSRA SHRA SCT020 BKN035CB 
     PROB30 
     TEMPO 2216/2218 VRB28G44KT 1500 +TSRAGR BKN015 OVC025CB 
     TEMPO 2219/2221 8000 SHRA BKN030CB
       
LHPR 221345Z AUTO 33010KT 290V360 9999 SCT047 13/06 Q1018 NOSIG
LHPR 221315Z AUTO VRB06KT 9999 -SHRA OVC035 //////CB 12/08 Q1018 NOSIG
LHPR 221245Z AUTO 32014KT 9999 VCTS BKN035 //////CB 12/07 Q1018 NOSIG
LHPR 221215Z AUTO 30016KT 9999 VCTS FEW051 SCT069 BKN113 //////CB 15/07 Q1017 NOSIG
LHPR 221145Z AUTO 31015KT 9999 BKN048 //////CB 16/06 Q1016 TEMPO VRB20G35KT 5000 TSRA SHRA
TAF LHPR 221115Z 2212/2221 31015G25KT 9999 BKN045TCU 
     TEMPO 2212/2215 VRB25G40KT 4000 TSRA SHRA SCT020 BKN035CB 
     BECMG 2215/2218 34010KT CAVOK 
     PROB30 
     TEMPO 2215/2221 8000 SHRA SCT040TCU
       
LHSM 221345Z AUTO 36017KT 7000 TSRA BKN047 //////CB 11/09 Q1017 BECMG 9999 NSW SCT045CB
LHSM 221315Z AUTO 02017KT 350V050 9999 TS BKN077 //////CB 16/07 Q1017 TEMPO VRB20G32KT 5000 TSRA SHRA BKN035CB
LHSM 221245Z AUTO 19007KT 110V260 CAVOK 19/06 Q1016 TEMPO VRB20G32KT 5000 TSRA SHRA BKN035CB
LHSM 221215Z AUTO 19004KT 140V270 CAVOK 18/07 Q1016 NOSIG
LHSM 221145Z AUTO 16005KT 100V230 CAVOK 18/07 Q1016 NOSIG
TAF LHSM 221115Z 2212/2221 20008KT 9999 SCT050TCU 
     TEMPO 2212/2218 VRB18G32KT 4000 TSRA SHRA BKN040CB 
     PROB30 
     TEMPO 2213/2217 VRB26G42KT 1500 +TSRAGR BKN035CB 
     BECMG 2217/2219 VRB03KT CAVOK 
     PROB40 
     TEMPO 2218/2221 8000 SHRA SCT045TCU
       
LHSN 221345Z 29014KT 250V330 9999 -SHRA VCTS FEW050CB SCT055TCU BKN200 15/06 Q1015 TEMPO 8000 SHRA -TSRA RMK BLU
LHSN 221337Z 28014G29KT 240V320 9999 -SHRA VCTS FEW050CB SCT055TCU BKN200 16/05 Q1015 RMK BLU
LHSN 221315Z 26012KT 230V300 9999 FEW050CB SCT055TCU SCT200 18/06 Q1014 BECMG 8000 SHRA -TSRA RMK BLU
LHSN 221245Z 23014KT 9999 FEW050TCU SCT055 SCT200 19/05 Q1014 TEMPO 5000 SHRA TSRA RMK BLU
LHSN 221215Z 24012KT 210V280 CAVOK 19/06 Q1014 TEMPO FM1315 5000 SHRA TSRA SCT033CB BKN050 RMK BLU
LHSN 221145Z 23014KT CAVOK 19/06 Q1015 TEMPO FM1300 5000 SHRA TSRA SCT033CB BKN050 RMK BLU
TAF LHSN 221115Z 2212/2221 24012KT 9999 FEW045TCU SCT060 
     TEMPO 2212/2217 27016G29KT 5000 SHRA TSRA SCT033CB BKN050 
     PROB30 
     TEMPO 2212/2215 VRB23G39KT 2500 +TSRAGR FEW010 BKN030CB 
     BECMG 2216/2219 29009KT CAVOK